sensor_id;sensor_type;location;lat;lon;timestamp;P1;durP1;ratioP1;P2;durP2;ratioP2
17943;SDS011;9097;47.028;15.444;2022-08-20T00:01:17;3.63;;;2.25;;
17943;SDS011;9097;47.028;15.444;2022-08-20T00:04:20;4.25;;;2.10;;
17943;SDS011;9097;47.028;15.444;2022-08-20T00:07:23;2.97;;;2.15;;
17943;SDS011;9097;47.028;15.444;2022-08-20T00:10:26;3.78;;;2.40;;
17943;SDS011;9097;47.028;15.444;2022-08-20T00:13:32;3.17;;;1.98;;
17943;SDS011;9097;47.028;15.444;2022-08-20T00:16:37;3.60;;;2.10;;
17943;SDS011;9097;47.028;15.444;2022-08-20T00:19:40;3.85;;;2.38;;
17943;SDS011;9097;47.028;15.444;2022-08-20T00:22:42;3.22;;;2.80;;
17943;SDS011;9097;47.028;15.444;2022-08-20T00:25:45;4.22;;;2.50;;
17943;SDS011;9097;47.028;15.444;2022-08-20T00:28:49;6.95;;;2.80;;
17943;SDS011;9097;47.028;15.444;2022-08-20T00:31:52;4.50;;;2.58;;
17943;SDS011;9097;47.028;15.444;2022-08-20T00:34:55;7.00;;;3.03;;
17943;SDS011;9097;47.028;15.444;2022-08-20T00:37:57;5.50;;;2.50;;
17943;SDS011;9097;47.028;15.444;2022-08-20T00:41:00;5.53;;;2.20;;
17943;SDS011;9097;47.028;15.444;2022-08-20T00:44:07;4.10;;;2.65;;
17943;SDS011;9097;47.028;15.444;2022-08-20T00:47:10;4.50;;;2.70;;
17943;SDS011;9097;47.028;15.444;2022-08-20T00:50:14;5.10;;;2.00;;
17943;SDS011;9097;47.028;15.444;2022-08-20T00:53:17;6.47;;;3.17;;
17943;SDS011;9097;47.028;15.444;2022-08-20T00:56:22;1.98;;;1.75;;
17943;SDS011;9097;47.028;15.444;2022-08-20T00:59:27;3.40;;;2.20;;
17943;SDS011;9097;47.028;15.444;2022-08-20T01:02:30;4.18;;;1.95;;
17943;SDS011;9097;47.028;15.444;2022-08-20T01:05:35;3.20;;;2.28;;
17943;SDS011;9097;47.028;15.444;2022-08-20T01:08:38;6.13;;;2.38;;
17943;SDS011;9097;47.028;15.444;2022-08-20T01:11:41;3.40;;;2.55;;
17943;SDS011;9097;47.028;15.444;2022-08-20T01:14:45;6.45;;;2.72;;
17943;SDS011;9097;47.028;15.444;2022-08-20T01:17:49;3.65;;;2.25;;
17943;SDS011;9097;47.028;15.444;2022-08-20T01:20:53;6.90;;;2.30;;
17943;SDS011;9097;47.028;15.444;2022-08-20T01:23:58;5.25;;;2.25;;
17943;SDS011;9097;47.028;15.444;2022-08-20T01:27:08;4.65;;;2.30;;
17943;SDS011;9097;47.028;15.444;2022-08-20T01:30:11;4.40;;;2.22;;
17943;SDS011;9097;47.028;15.444;2022-08-20T01:33:13;3.15;;;2.20;;
17943;SDS011;9097;47.028;15.444;2022-08-20T01:36:16;2.97;;;2.13;;
17943;SDS011;9097;47.028;15.444;2022-08-20T01:39:21;2.85;;;2.47;;
17943;SDS011;9097;47.028;15.444;2022-08-20T01:42:26;5.18;;;2.13;;
17943;SDS011;9097;47.028;15.444;2022-08-20T01:45:31;3.67;;;2.15;;
17943;SDS011;9097;47.028;15.444;2022-08-20T01:48:35;3.45;;;2.20;;
17943;SDS011;9097;47.028;15.444;2022-08-20T01:51:38;5.55;;;2.22;;
17943;SDS011;9097;47.028;15.444;2022-08-20T01:54:41;4.45;;;2.08;;
17943;SDS011;9097;47.028;15.444;2022-08-20T01:57:45;3.63;;;3.13;;
17943;SDS011;9097;47.028;15.444;2022-08-20T02:00:48;4.18;;;2.65;;
17943;SDS011;9097;47.028;15.444;2022-08-20T02:03:51;3.92;;;2.42;;
17943;SDS011;9097;47.028;15.444;2022-08-20T02:06:54;3.55;;;3.03;;
17943;SDS011;9097;47.028;15.444;2022-08-20T02:09:57;5.57;;;3.78;;
17943;SDS011;9097;47.028;15.444;2022-08-20T02:13:01;6.13;;;3.30;;
17943;SDS011;9097;47.028;15.444;2022-08-20T02:16:07;4.47;;;2.13;;
17943;SDS011;9097;47.028;15.444;2022-08-20T02:19:12;5.70;;;2.72;;
17943;SDS011;9097;47.028;15.444;2022-08-20T02:22:17;4.53;;;2.42;;
17943;SDS011;9097;47.028;15.444;2022-08-20T02:25:24;3.20;;;1.85;;
17943;SDS011;9097;47.028;15.444;2022-08-20T02:28:29;2.22;;;1.63;;
17943;SDS011;9097;47.028;15.444;2022-08-20T02:31:32;3.65;;;2.42;;
17943;SDS011;9097;47.028;15.444;2022-08-20T02:34:35;3.63;;;2.38;;
17943;SDS011;9097;47.028;15.444;2022-08-20T02:37:38;4.32;;;1.90;;
17943;SDS011;9097;47.028;15.444;2022-08-20T02:40:41;2.42;;;1.95;;
17943;SDS011;9097;47.028;15.444;2022-08-20T02:43:46;3.08;;;2.30;;
17943;SDS011;9097;47.028;15.444;2022-08-20T02:46:48;4.25;;;2.35;;
17943;SDS011;9097;47.028;15.444;2022-08-20T02:49:52;3.90;;;2.15;;
17943;SDS011;9097;47.028;15.444;2022-08-20T02:52:55;2.17;;;1.80;;
17943;SDS011;9097;47.028;15.444;2022-08-20T02:55:58;3.33;;;1.83;;
17943;SDS011;9097;47.028;15.444;2022-08-20T02:59:03;3.17;;;1.77;;
17943;SDS011;9097;47.028;15.444;2022-08-20T03:02:05;3.40;;;2.40;;
17943;SDS011;9097;47.028;15.444;2022-08-20T03:05:08;5.20;;;2.35;;
17943;SDS011;9097;47.028;15.444;2022-08-20T03:08:12;3.33;;;2.33;;
17943;SDS011;9097;47.028;15.444;2022-08-20T03:11:15;2.67;;;2.03;;
17943;SDS011;9097;47.028;15.444;2022-08-20T03:14:20;2.42;;;1.70;;
17943;SDS011;9097;47.028;15.444;2022-08-20T03:17:23;3.83;;;2.55;;
17943;SDS011;9097;47.028;15.444;2022-08-20T03:20:26;2.28;;;1.67;;
17943;SDS011;9097;47.028;15.444;2022-08-20T03:23:29;2.72;;;2.20;;
17943;SDS011;9097;47.028;15.444;2022-08-20T03:26:31;4.10;;;2.35;;
17943;SDS011;9097;47.028;15.444;2022-08-20T03:29:35;3.47;;;2.05;;
17943;SDS011;9097;47.028;15.444;2022-08-20T03:32:38;3.88;;;2.05;;
17943;SDS011;9097;47.028;15.444;2022-08-20T03:35:41;4.32;;;1.90;;
17943;SDS011;9097;47.028;15.444;2022-08-20T03:38:44;3.05;;;2.42;;
17943;SDS011;9097;47.028;15.444;2022-08-20T03:41:47;3.53;;;2.33;;
17943;SDS011;9097;47.028;15.444;2022-08-20T03:44:51;9.07;;;3.25;;
17943;SDS011;9097;47.028;15.444;2022-08-20T03:47:54;7.78;;;2.03;;
17943;SDS011;9097;47.028;15.444;2022-08-20T03:50:57;4.80;;;2.20;;
17943;SDS011;9097;47.028;15.444;2022-08-20T03:54:00;3.63;;;2.05;;
17943;SDS011;9097;47.028;15.444;2022-08-20T03:57:03;5.57;;;2.03;;
17943;SDS011;9097;47.028;15.444;2022-08-20T04:00:07;4.38;;;2.65;;
17943;SDS011;9097;47.028;15.444;2022-08-20T04:03:12;2.88;;;2.05;;
17943;SDS011;9097;47.028;15.444;2022-08-20T04:06:14;2.63;;;1.95;;
17943;SDS011;9097;47.028;15.444;2022-08-20T04:09:17;4.93;;;2.72;;
17943;SDS011;9097;47.028;15.444;2022-08-20T04:12:20;2.90;;;2.10;;
17943;SDS011;9097;47.028;15.444;2022-08-20T04:15:25;5.55;;;2.58;;
17943;SDS011;9097;47.028;15.444;2022-08-20T04:18:28;2.92;;;1.95;;
17943;SDS011;9097;47.028;15.444;2022-08-20T04:21:30;3.60;;;2.22;;
17943;SDS011;9097;47.028;15.444;2022-08-20T04:24:33;4.07;;;2.85;;
17943;SDS011;9097;47.028;15.444;2022-08-20T04:27:36;1.77;;;1.33;;
17943;SDS011;9097;47.028;15.444;2022-08-20T04:30:41;3.63;;;2.40;;
17943;SDS011;9097;47.028;15.444;2022-08-20T04:33:44;2.83;;;2.38;;
17943;SDS011;9097;47.028;15.444;2022-08-20T04:36:47;5.07;;;1.98;;
17943;SDS011;9097;47.028;15.444;2022-08-20T04:39:49;2.85;;;1.85;;
17943;SDS011;9097;47.028;15.444;2022-08-20T04:43:05;4.05;;;2.25;;
17943;SDS011;9097;47.028;15.444;2022-08-20T04:46:09;2.65;;;1.70;;
17943;SDS011;9097;47.028;15.444;2022-08-20T04:49:14;2.88;;;2.08;;
17943;SDS011;9097;47.028;15.444;2022-08-20T04:52:17;3.47;;;2.28;;
17943;SDS011;9097;47.028;15.444;2022-08-20T04:55:19;8.30;;;2.45;;
17943;SDS011;9097;47.028;15.444;2022-08-20T04:58:24;4.53;;;2.42;;
17943;SDS011;9097;47.028;15.444;2022-08-20T05:01:28;5.88;;;2.58;;
17943;SDS011;9097;47.028;15.444;2022-08-20T05:04:31;2.67;;;2.00;;
17943;SDS011;9097;47.028;15.444;2022-08-20T05:07:36;3.65;;;2.25;;
17943;SDS011;9097;47.028;15.444;2022-08-20T05:10:39;5.13;;;1.85;;
17943;SDS011;9097;47.028;15.444;2022-08-20T05:13:42;2.63;;;2.00;;
17943;SDS011;9097;47.028;15.444;2022-08-20T05:16:46;5.70;;;2.58;;
17943;SDS011;9097;47.028;15.444;2022-08-20T05:19:52;3.30;;;2.10;;
17943;SDS011;9097;47.028;15.444;2022-08-20T05:22:55;5.60;;;1.85;;
17943;SDS011;9097;47.028;15.444;2022-08-20T05:25:57;4.57;;;2.85;;
17943;SDS011;9097;47.028;15.444;2022-08-20T05:29:00;4.53;;;2.72;;
17943;SDS011;9097;47.028;15.444;2022-08-20T05:32:05;4.40;;;2.33;;
17943;SDS011;9097;47.028;15.444;2022-08-20T05:35:08;4.28;;;2.13;;
17943;SDS011;9097;47.028;15.444;2022-08-20T05:38:11;2.15;;;1.90;;
17943;SDS011;9097;47.028;15.444;2022-08-20T05:41:14;2.55;;;2.30;;
17943;SDS011;9097;47.028;15.444;2022-08-20T05:44:17;5.85;;;2.65;;
17943;SDS011;9097;47.028;15.444;2022-08-20T05:47:22;6.13;;;3.17;;
17943;SDS011;9097;47.028;15.444;2022-08-20T05:50:27;2.80;;;2.58;;
17943;SDS011;9097;47.028;15.444;2022-08-20T05:53:30;3.22;;;2.67;;
17943;SDS011;9097;47.028;15.444;2022-08-20T05:56:32;9.65;;;3.05;;
17943;SDS011;9097;47.028;15.444;2022-08-20T05:59:35;4.20;;;2.45;;
17943;SDS011;9097;47.028;15.444;2022-08-20T06:02:40;4.07;;;2.78;;
17943;SDS011;9097;47.028;15.444;2022-08-20T06:06:00;2.75;;;2.15;;
17943;SDS011;9097;47.028;15.444;2022-08-20T06:09:04;4.65;;;2.25;;
17943;SDS011;9097;47.028;15.444;2022-08-20T06:12:07;3.00;;;2.47;;
17943;SDS011;9097;47.028;15.444;2022-08-20T06:15:10;2.97;;;2.45;;
17943;SDS011;9097;47.028;15.444;2022-08-20T06:18:15;5.18;;;2.50;;
17943;SDS011;9097;47.028;15.444;2022-08-20T06:21:18;2.63;;;1.70;;
17943;SDS011;9097;47.028;15.444;2022-08-20T06:24:20;2.85;;;1.23;;
17943;SDS011;9097;47.028;15.444;2022-08-20T06:27:24;4.60;;;2.63;;
17943;SDS011;9097;47.028;15.444;2022-08-20T06:30:26;1.80;;;1.67;;
17943;SDS011;9097;47.028;15.444;2022-08-20T06:33:30;6.22;;;2.80;;
17943;SDS011;9097;47.028;15.444;2022-08-20T06:36:33;3.40;;;1.98;;
17943;SDS011;9097;47.028;15.444;2022-08-20T06:39:36;5.75;;;2.63;;
17943;SDS011;9097;47.028;15.444;2022-08-20T06:42:38;3.22;;;2.40;;
17943;SDS011;9097;47.028;15.444;2022-08-20T06:45:42;5.80;;;2.65;;
17943;SDS011;9097;47.028;15.444;2022-08-20T06:48:46;3.15;;;2.10;;
17943;SDS011;9097;47.028;15.444;2022-08-20T06:51:49;5.53;;;2.90;;
17943;SDS011;9097;47.028;15.444;2022-08-20T06:54:51;4.55;;;2.30;;
17943;SDS011;9097;47.028;15.444;2022-08-20T06:57:57;2.03;;;1.65;;
17943;SDS011;9097;47.028;15.444;2022-08-20T07:01:00;7.93;;;2.47;;
17943;SDS011;9097;47.028;15.444;2022-08-20T07:04:04;5.38;;;2.80;;
17943;SDS011;9097;47.028;15.444;2022-08-20T07:07:14;9.13;;;3.03;;
17943;SDS011;9097;47.028;15.444;2022-08-20T07:10:17;5.20;;;2.65;;
17943;SDS011;9097;47.028;15.444;2022-08-20T07:13:19;2.75;;;2.38;;
17943;SDS011;9097;47.028;15.444;2022-08-20T07:16:22;3.22;;;2.72;;
17943;SDS011;9097;47.028;15.444;2022-08-20T07:19:26;3.88;;;2.88;;
17943;SDS011;9097;47.028;15.444;2022-08-20T07:22:29;2.85;;;2.47;;
17943;SDS011;9097;47.028;15.444;2022-08-20T07:25:34;3.17;;;2.17;;
17943;SDS011;9097;47.028;15.444;2022-08-20T07:28:37;4.13;;;2.50;;
17943;SDS011;9097;47.028;15.444;2022-08-20T07:31:40;3.13;;;1.85;;
17943;SDS011;9097;47.028;15.444;2022-08-20T07:35:02;3.60;;;2.05;;
17943;SDS011;9097;47.028;15.444;2022-08-20T07:38:05;4.35;;;3.08;;
17943;SDS011;9097;47.028;15.444;2022-08-20T07:41:09;3.72;;;2.63;;
17943;SDS011;9097;47.028;15.444;2022-08-20T07:44:12;2.83;;;2.00;;
17943;SDS011;9097;47.028;15.444;2022-08-20T07:47:16;7.80;;;1.80;;
17943;SDS011;9097;47.028;15.444;2022-08-20T07:50:21;5.82;;;2.60;;
17943;SDS011;9097;47.028;15.444;2022-08-20T07:53:24;2.30;;;1.63;;
17943;SDS011;9097;47.028;15.444;2022-08-20T07:56:27;1.92;;;1.42;;
17943;SDS011;9097;47.028;15.444;2022-08-20T07:59:30;2.53;;;1.42;;
17943;SDS011;9097;47.028;15.444;2022-08-20T08:02:32;7.72;;;1.38;;
17943;SDS011;9097;47.028;15.444;2022-08-20T08:05:37;2.38;;;1.17;;
17943;SDS011;9097;47.028;15.444;2022-08-20T08:08:40;1.48;;;1.10;;
17943;SDS011;9097;47.028;15.444;2022-08-20T08:11:44;1.70;;;1.60;;
17943;SDS011;9097;47.028;15.444;2022-08-20T08:14:49;2.17;;;1.55;;
17943;SDS011;9097;47.028;15.444;2022-08-20T08:17:53;2.05;;;1.42;;
17943;SDS011;9097;47.028;15.444;2022-08-20T08:20:59;5.90;;;1.48;;
17943;SDS011;9097;47.028;15.444;2022-08-20T08:24:01;5.00;;;1.25;;
17943;SDS011;9097;47.028;15.444;2022-08-20T08:27:04;1.45;;;0.95;;
17943;SDS011;9097;47.028;15.444;2022-08-20T08:30:08;0.95;;;0.93;;
17943;SDS011;9097;47.028;15.444;2022-08-20T08:33:17;1.77;;;0.88;;
17943;SDS011;9097;47.028;15.444;2022-08-20T08:36:31;1.75;;;1.10;;
17943;SDS011;9097;47.028;15.444;2022-08-20T08:39:34;0.82;;;0.80;;
17943;SDS011;9097;47.028;15.444;2022-08-20T08:42:37;1.38;;;1.02;;
17943;SDS011;9097;47.028;15.444;2022-08-20T08:45:43;1.50;;;1.30;;
17943;SDS011;9097;47.028;15.444;2022-08-20T08:48:47;1.33;;;0.90;;
17943;SDS011;9097;47.028;15.444;2022-08-20T08:51:55;1.05;;;0.90;;
17943;SDS011;9097;47.028;15.444;2022-08-20T08:54:59;2.03;;;0.93;;
17943;SDS011;9097;47.028;15.444;2022-08-20T08:58:03;1.70;;;0.80;;
17943;SDS011;9097;47.028;15.444;2022-08-20T09:01:09;2.30;;;1.02;;
17943;SDS011;9097;47.028;15.444;2022-08-20T09:04:13;1.17;;;1.00;;
17943;SDS011;9097;47.028;15.444;2022-08-20T09:07:17;0.77;;;0.70;;
17943;SDS011;9097;47.028;15.444;2022-08-20T09:10:20;1.73;;;1.10;;
17943;SDS011;9097;47.028;15.444;2022-08-20T09:13:22;1.20;;;1.10;;
17943;SDS011;9097;47.028;15.444;2022-08-20T09:16:25;2.47;;;1.10;;
17943;SDS011;9097;47.028;15.444;2022-08-20T09:19:28;1.13;;;0.73;;
17943;SDS011;9097;47.028;15.444;2022-08-20T09:22:32;1.60;;;1.27;;
17943;SDS011;9097;47.028;15.444;2022-08-20T09:25:36;2.38;;;1.35;;
17943;SDS011;9097;47.028;15.444;2022-08-20T09:28:38;1.52;;;1.10;;
17943;SDS011;9097;47.028;15.444;2022-08-20T09:31:41;1.38;;;1.10;;
17943;SDS011;9097;47.028;15.444;2022-08-20T09:34:44;1.13;;;0.98;;
17943;SDS011;9097;47.028;15.444;2022-08-20T09:37:48;1.45;;;1.23;;
17943;SDS011;9097;47.028;15.444;2022-08-20T09:40:51;3.42;;;1.38;;
17943;SDS011;9097;47.028;15.444;2022-08-20T09:43:54;1.20;;;0.93;;
17943;SDS011;9097;47.028;15.444;2022-08-20T09:46:57;1.23;;;0.90;;
17943;SDS011;9097;47.028;15.444;2022-08-20T09:49:59;3.67;;;1.38;;
17943;SDS011;9097;47.028;15.444;2022-08-20T09:53:03;3.78;;;1.00;;
17943;SDS011;9097;47.028;15.444;2022-08-20T09:56:06;2.20;;;1.10;;
17943;SDS011;9097;47.028;15.444;2022-08-20T09:59:10;1.50;;;1.10;;
17943;SDS011;9097;47.028;15.444;2022-08-20T10:02:14;1.85;;;0.93;;
17943;SDS011;9097;47.028;15.444;2022-08-20T10:05:17;1.27;;;0.90;;
17943;SDS011;9097;47.028;15.444;2022-08-20T10:08:21;0.63;;;0.30;;
17943;SDS011;9097;47.028;15.444;2022-08-20T10:11:23;0.57;;;0.43;;
17943;SDS011;9097;47.028;15.444;2022-08-20T10:14:27;0.35;;;0.17;;
17943;SDS011;9097;47.028;15.444;2022-08-20T10:17:30;0.13;;;0.13;;
17943;SDS011;9097;47.028;15.444;2022-08-20T10:20:33;0.10;;;0.10;;
17943;SDS011;9097;47.028;15.444;2022-08-20T10:23:37;0.35;;;0.20;;
17943;SDS011;9097;47.028;15.444;2022-08-20T10:26:40;0.28;;;0.20;;
17943;SDS011;9097;47.028;15.444;2022-08-20T10:29:42;0.10;;;0.10;;
17943;SDS011;9097;47.028;15.444;2022-08-20T10:32:45;0.17;;;0.17;;
17943;SDS011;9097;47.028;15.444;2022-08-20T10:35:47;0.13;;;0.10;;
17943;SDS011;9097;47.028;15.444;2022-08-20T10:38:51;0.05;;;0.03;;
17943;SDS011;9097;47.028;15.444;2022-08-20T10:41:54;0.03;;;0.03;;
17943;SDS011;9097;47.028;15.444;2022-08-20T10:44:57;0.13;;;0.13;;
17943;SDS011;9097;47.028;15.444;2022-08-20T10:47:59;0.17;;;0.17;;
17943;SDS011;9097;47.028;15.444;2022-08-20T10:51:02;0.10;;;0.10;;
17943;SDS011;9097;47.028;15.444;2022-08-20T10:54:06;0.30;;;0.20;;
17943;SDS011;9097;47.028;15.444;2022-08-20T10:57:11;0.28;;;0.20;;
17943;SDS011;9097;47.028;15.444;2022-08-20T11:00:16;0.30;;;0.30;;
17943;SDS011;9097;47.028;15.444;2022-08-20T11:03:19;0.20;;;0.20;;
17943;SDS011;9097;47.028;15.444;2022-08-20T11:06:21;0.22;;;0.10;;
17943;SDS011;9097;47.028;15.444;2022-08-20T11:09:27;0.52;;;0.30;;
17943;SDS011;9097;47.028;15.444;2022-08-20T11:12:29;0.30;;;0.30;;
17943;SDS011;9097;47.028;15.444;2022-08-20T11:15:33;0.82;;;0.35;;
17943;SDS011;9097;47.028;15.444;2022-08-20T11:18:36;0.22;;;0.22;;
17943;SDS011;9097;47.028;15.444;2022-08-20T11:21:39;0.85;;;0.30;;
17943;SDS011;9097;47.028;15.444;2022-08-20T11:24:43;0.22;;;0.10;;
17943;SDS011;9097;47.028;15.444;2022-08-20T11:27:47;0.32;;;0.20;;
17943;SDS011;9097;47.028;15.444;2022-08-20T11:30:50;0.32;;;0.20;;
17943;SDS011;9097;47.028;15.444;2022-08-20T11:33:53;0.20;;;0.20;;
17943;SDS011;9097;47.028;15.444;2022-08-20T11:36:55;0.70;;;0.40;;
17943;SDS011;9097;47.028;15.444;2022-08-20T11:40:00;0.52;;;0.50;;
17943;SDS011;9097;47.028;15.444;2022-08-20T11:43:03;0.45;;;0.32;;
17943;SDS011;9097;47.028;15.444;2022-08-20T11:46:06;0.75;;;0.50;;
17943;SDS011;9097;47.028;15.444;2022-08-20T11:49:08;0.38;;;0.20;;
17943;SDS011;9097;47.028;15.444;2022-08-20T11:52:11;0.25;;;0.25;;
17943;SDS011;9097;47.028;15.444;2022-08-20T11:55:15;1.35;;;0.30;;
17943;SDS011;9097;47.028;15.444;2022-08-20T11:58:18;0.60;;;0.20;;
17943;SDS011;9097;47.028;15.444;2022-08-20T12:01:21;1.88;;;0.70;;
17943;SDS011;9097;47.028;15.444;2022-08-20T12:04:23;0.20;;;0.20;;
17943;SDS011;9097;47.028;15.444;2022-08-20T12:07:26;1.63;;;0.40;;
17943;SDS011;9097;47.028;15.444;2022-08-20T12:10:30;0.85;;;0.70;;
17943;SDS011;9097;47.028;15.444;2022-08-20T12:13:34;1.85;;;0.35;;
17943;SDS011;9097;47.028;15.444;2022-08-20T12:16:37;0.73;;;0.57;;
17943;SDS011;9097;47.028;15.444;2022-08-20T12:19:40;1.00;;;0.32;;
17943;SDS011;9097;47.028;15.444;2022-08-20T12:22:43;0.55;;;0.55;;
17943;SDS011;9097;47.028;15.444;2022-08-20T12:25:47;0.45;;;0.40;;
17943;SDS011;9097;47.028;15.444;2022-08-20T12:28:49;0.70;;;0.60;;
17943;SDS011;9097;47.028;15.444;2022-08-20T12:31:53;0.17;;;0.17;;
17943;SDS011;9097;47.028;15.444;2022-08-20T12:34:55;0.70;;;0.50;;
17943;SDS011;9097;47.028;15.444;2022-08-20T12:38:01;0.30;;;0.28;;
17943;SDS011;9097;47.028;15.444;2022-08-20T12:41:07;2.50;;;0.70;;
17943;SDS011;9097;47.028;15.444;2022-08-20T12:44:09;1.48;;;0.47;;
17943;SDS011;9097;47.028;15.444;2022-08-20T12:47:13;0.30;;;0.30;;
17943;SDS011;9097;47.028;15.444;2022-08-20T12:50:18;1.95;;;0.70;;
17943;SDS011;9097;47.028;15.444;2022-08-20T12:53:22;3.95;;;0.47;;
17943;SDS011;9097;47.028;15.444;2022-08-20T12:56:25;0.77;;;0.65;;
17943;SDS011;9097;47.028;15.444;2022-08-20T12:59:28;0.75;;;0.32;;
17943;SDS011;9097;47.028;15.444;2022-08-20T13:02:30;0.68;;;0.68;;
17943;SDS011;9097;47.028;15.444;2022-08-20T13:05:33;0.70;;;0.60;;
17943;SDS011;9097;47.028;15.444;2022-08-20T13:08:36;1.75;;;0.68;;
17943;SDS011;9097;47.028;15.444;2022-08-20T13:11:41;0.90;;;0.60;;
17943;SDS011;9097;47.028;15.444;2022-08-20T13:14:43;0.50;;;0.45;;
17943;SDS011;9097;47.028;15.444;2022-08-20T13:17:49;1.15;;;0.70;;
17943;SDS011;9097;47.028;15.444;2022-08-20T13:20:52;0.77;;;0.60;;
17943;SDS011;9097;47.028;15.444;2022-08-20T13:23:54;1.35;;;0.80;;
17943;SDS011;9097;47.028;15.444;2022-08-20T13:27:04;1.05;;;0.73;;
17943;SDS011;9097;47.028;15.444;2022-08-20T13:30:09;0.70;;;0.40;;
17943;SDS011;9097;47.028;15.444;2022-08-20T13:33:14;0.50;;;0.45;;
17943;SDS011;9097;47.028;15.444;2022-08-20T13:36:16;0.40;;;0.40;;
17943;SDS011;9097;47.028;15.444;2022-08-20T13:39:19;0.45;;;0.43;;
17943;SDS011;9097;47.028;15.444;2022-08-20T13:42:24;0.35;;;0.30;;
17943;SDS011;9097;47.028;15.444;2022-08-20T13:45:28;0.38;;;0.30;;
17943;SDS011;9097;47.028;15.444;2022-08-20T13:48:31;0.45;;;0.40;;
17943;SDS011;9097;47.028;15.444;2022-08-20T13:51:33;0.85;;;0.52;;
17943;SDS011;9097;47.028;15.444;2022-08-20T13:54:35;0.55;;;0.30;;
17943;SDS011;9097;47.028;15.444;2022-08-20T13:57:39;2.10;;;0.73;;
17943;SDS011;9097;47.028;15.444;2022-08-20T14:00:42;1.48;;;0.75;;
17943;SDS011;9097;47.028;15.444;2022-08-20T14:03:46;0.95;;;0.40;;
17943;SDS011;9097;47.028;15.444;2022-08-20T14:06:48;1.55;;;0.60;;
17943;SDS011;9097;47.028;15.444;2022-08-20T14:09:52;0.82;;;0.50;;
17943;SDS011;9097;47.028;15.444;2022-08-20T14:12:57;1.33;;;0.45;;
17943;SDS011;9097;47.028;15.444;2022-08-20T14:16:00;0.55;;;0.40;;
17943;SDS011;9097;47.028;15.444;2022-08-20T14:19:02;0.93;;;0.68;;
17943;SDS011;9097;47.028;15.444;2022-08-20T14:22:05;0.85;;;0.65;;
17943;SDS011;9097;47.028;15.444;2022-08-20T14:25:08;1.48;;;0.75;;
17943;SDS011;9097;47.028;15.444;2022-08-20T14:28:14;0.40;;;0.22;;
17943;SDS011;9097;47.028;15.444;2022-08-20T14:31:18;1.60;;;0.63;;
17943;SDS011;9097;47.028;15.444;2022-08-20T14:34:21;0.22;;;0.22;;
17943;SDS011;9097;47.028;15.444;2022-08-20T14:37:24;0.20;;;0.20;;
17943;SDS011;9097;47.028;15.444;2022-08-20T14:40:28;0.30;;;0.30;;
17943;SDS011;9097;47.028;15.444;2022-08-20T14:43:32;0.28;;;0.10;;
17943;SDS011;9097;47.028;15.444;2022-08-20T14:46:35;0.25;;;0.20;;
17943;SDS011;9097;47.028;15.444;2022-08-20T14:49:42;0.10;;;0.10;;
17943;SDS011;9097;47.028;15.444;2022-08-20T14:52:46;1.23;;;0.30;;
17943;SDS011;9097;47.028;15.444;2022-08-20T14:55:48;0.10;;;0.10;;
17943;SDS011;9097;47.028;15.444;2022-08-20T14:58:52;0.38;;;0.20;;
17943;SDS011;9097;47.028;15.444;2022-08-20T15:01:54;0.00;;;0.00;;
17943;SDS011;9097;47.028;15.444;2022-08-20T15:04:57;0.00;;;0.00;;
17943;SDS011;9097;47.028;15.444;2022-08-20T15:07:59;0.65;;;0.65;;
17943;SDS011;9097;47.028;15.444;2022-08-20T15:11:03;0.20;;;0.20;;
17943;SDS011;9097;47.028;15.444;2022-08-20T15:14:08;0.10;;;0.10;;
17943;SDS011;9097;47.028;15.444;2022-08-20T15:17:11;0.20;;;0.20;;
17943;SDS011;9097;47.028;15.444;2022-08-20T15:20:20;0.10;;;0.10;;
17943;SDS011;9097;47.028;15.444;2022-08-20T15:23:24;0.30;;;0.30;;
17943;SDS011;9097;47.028;15.444;2022-08-20T15:26:29;0.30;;;0.30;;
17943;SDS011;9097;47.028;15.444;2022-08-20T15:29:33;0.43;;;0.30;;
17943;SDS011;9097;47.028;15.444;2022-08-20T15:32:35;0.30;;;0.30;;
17943;SDS011;9097;47.028;15.444;2022-08-20T15:35:38;0.20;;;0.20;;
17943;SDS011;9097;47.028;15.444;2022-08-20T15:38:40;0.75;;;0.40;;
17943;SDS011;9097;47.028;15.444;2022-08-20T15:41:42;0.10;;;0.10;;
17943;SDS011;9097;47.028;15.444;2022-08-20T15:44:48;0.20;;;0.20;;
17943;SDS011;9097;47.028;15.444;2022-08-20T15:47:52;0.30;;;0.30;;
17943;SDS011;9097;47.028;15.444;2022-08-20T15:51:09;0.35;;;0.25;;
17943;SDS011;9097;47.028;15.444;2022-08-20T15:54:23;0.08;;;0.08;;
17943;SDS011;9097;47.028;15.444;2022-08-20T15:57:36;0.28;;;0.20;;
17943;SDS011;9097;47.028;15.444;2022-08-20T16:00:48;0.17;;;0.10;;
17943;SDS011;9097;47.028;15.444;2022-08-20T16:04:01;0.73;;;0.20;;
17943;SDS011;9097;47.028;15.444;2022-08-20T16:07:16;0.30;;;0.20;;
17943;SDS011;9097;47.028;15.444;2022-08-20T16:10:22;0.30;;;0.20;;
17943;SDS011;9097;47.028;15.444;2022-08-20T16:13:30;0.20;;;0.17;;
17943;SDS011;9097;47.028;15.444;2022-08-20T16:16:43;1.40;;;0.65;;
17943;SDS011;9097;47.028;15.444;2022-08-20T16:19:50;0.52;;;0.40;;
17943;SDS011;9097;47.028;15.444;2022-08-20T16:22:56;0.25;;;0.25;;
17943;SDS011;9097;47.028;15.444;2022-08-20T16:26:02;0.17;;;0.17;;
17943;SDS011;9097;47.028;15.444;2022-08-20T16:29:16;0.68;;;0.40;;
17943;SDS011;9097;47.028;15.444;2022-08-20T16:32:29;0.40;;;0.40;;
17943;SDS011;9097;47.028;15.444;2022-08-20T16:35:37;0.28;;;0.28;;
17943;SDS011;9097;47.028;15.444;2022-08-20T16:38:47;0.17;;;0.17;;
17943;SDS011;9097;47.028;15.444;2022-08-20T16:41:55;0.10;;;0.10;;
17943;SDS011;9097;47.028;15.444;2022-08-20T16:44:59;0.43;;;0.30;;
17943;SDS011;9097;47.028;15.444;2022-08-20T16:48:05;0.43;;;0.30;;
17943;SDS011;9097;47.028;15.444;2022-08-20T16:51:10;0.30;;;0.30;;
17943;SDS011;9097;47.028;15.444;2022-08-20T16:54:18;0.10;;;0.10;;
17943;SDS011;9097;47.028;15.444;2022-08-20T16:57:22;0.20;;;0.20;;
17943;SDS011;9097;47.028;15.444;2022-08-20T17:00:29;0.30;;;0.30;;
17943;SDS011;9097;47.028;15.444;2022-08-20T17:03:36;0.30;;;0.30;;
17943;SDS011;9097;47.028;15.444;2022-08-20T17:06:42;0.40;;;0.30;;
17943;SDS011;9097;47.028;15.444;2022-08-20T17:09:47;0.52;;;0.43;;
17943;SDS011;9097;47.028;15.444;2022-08-20T17:12:50;0.93;;;0.57;;
17943;SDS011;9097;47.028;15.444;2022-08-20T17:15:59;0.30;;;0.30;;
17943;SDS011;9097;47.028;15.444;2022-08-20T17:19:09;0.50;;;0.25;;
17943;SDS011;9097;47.028;15.444;2022-08-20T17:22:28;0.40;;;0.28;;
17943;SDS011;9097;47.028;15.444;2022-08-20T17:25:32;2.28;;;0.30;;
17943;SDS011;9097;47.028;15.444;2022-08-20T17:28:37;0.20;;;0.20;;
17943;SDS011;9097;47.028;15.444;2022-08-20T17:31:49;0.20;;;0.13;;
17943;SDS011;9097;47.028;15.444;2022-08-20T17:34:55;0.98;;;0.47;;
17943;SDS011;9097;47.028;15.444;2022-08-20T17:38:00;0.30;;;0.22;;
17943;SDS011;9097;47.028;15.444;2022-08-20T17:41:06;0.35;;;0.30;;
17943;SDS011;9097;47.028;15.444;2022-08-20T17:44:16;0.30;;;0.30;;
17943;SDS011;9097;47.028;15.444;2022-08-20T17:47:24;0.30;;;0.30;;
17943;SDS011;9097;47.028;15.444;2022-08-20T17:50:35;0.45;;;0.35;;
17943;SDS011;9097;47.028;15.444;2022-08-20T17:53:40;0.28;;;0.28;;
17943;SDS011;9097;47.028;15.444;2022-08-20T17:56:44;0.43;;;0.38;;
17943;SDS011;9097;47.028;15.444;2022-08-20T17:59:48;0.30;;;0.20;;
17943;SDS011;9097;47.028;15.444;2022-08-20T18:02:56;0.17;;;0.10;;
17943;SDS011;9097;47.028;15.444;2022-08-20T18:06:03;0.17;;;0.17;;
17943;SDS011;9097;47.028;15.444;2022-08-20T18:09:13;0.20;;;0.20;;
17943;SDS011;9097;47.028;15.444;2022-08-20T18:12:20;0.40;;;0.30;;
17943;SDS011;9097;47.028;15.444;2022-08-20T18:15:28;0.85;;;0.40;;
17943;SDS011;9097;47.028;15.444;2022-08-20T18:18:35;0.30;;;0.30;;
17943;SDS011;9097;47.028;15.444;2022-08-20T18:21:56;0.98;;;0.32;;
17943;SDS011;9097;47.028;15.444;2022-08-20T18:25:17;0.20;;;0.17;;
17943;SDS011;9097;47.028;15.444;2022-08-20T18:28:34;0.32;;;0.30;;
17943;SDS011;9097;47.028;15.444;2022-08-20T18:31:42;0.15;;;0.15;;